createdAt,value
2019-02-02T00:00:38.148Z,22.8
2019-02-02T00:03:44.883Z,22.8
2019-02-02T00:06:51.387Z,22.7
2019-02-02T00:09:57.659Z,22.7
2019-02-02T00:13:05.506Z,22.7
2019-02-02T00:16:12.033Z,22.7
2019-02-02T00:19:21.499Z,22.7
2019-02-02T00:22:29.065Z,22.6
2019-02-02T00:25:35.866Z,22.7
2019-02-02T00:28:42.922Z,22.6
2019-02-02T00:31:49.775Z,22.6
2019-02-02T00:34:57.980Z,22.6
2019-02-02T00:38:04.959Z,22.6
2019-02-02T00:41:11.300Z,22.6
2019-02-02T00:44:18.299Z,22.6
2019-02-02T00:47:24.758Z,22.5
2019-02-02T00:50:31.390Z,22.5
2019-02-02T00:53:38.556Z,22.5
2019-02-02T00:56:45.298Z,22.5
2019-02-02T00:59:52.344Z,22.5
2019-02-02T01:03:01.149Z,22.5
2019-02-02T01:06:10.371Z,22.5
2019-02-02T01:09:17.798Z,22.4
2019-02-02T01:12:24.109Z,22.5
2019-02-02T01:15:33.225Z,22.4
2019-02-02T01:18:40.054Z,22.4
2019-02-02T01:21:46.851Z,22.4
2019-02-02T01:24:53.840Z,22.4
2019-02-02T01:28:05.061Z,22.4
2019-02-02T01:31:15.126Z,22.4
2019-02-02T01:34:21.126Z,22.4
2019-02-02T01:37:27.648Z,22.4
2019-02-02T01:40:33.936Z,22.4
2019-02-02T01:43:40.706Z,22.3
2019-02-02T01:46:46.842Z,22.3
2019-02-02T01:49:53.070Z,22.3
2019-02-02T01:53:00.543Z,22.3
2019-02-02T01:56:07.177Z,22.3
2019-02-02T01:59:15.907Z,22.3
2019-02-02T02:02:22.543Z,22.2
2019-02-02T02:05:29.079Z,22.2
2019-02-02T02:08:35.749Z,22.2
2019-02-02T02:11:42.278Z,22.2
2019-02-02T02:14:49.377Z,22.2
2019-02-02T02:17:56.665Z,22.2
2019-02-02T02:21:02.872Z,22.2
2019-02-02T02:24:10.473Z,22.2
2019-02-02T02:27:16.602Z,22.2
2019-02-02T02:30:22.745Z,22.2
2019-02-02T02:33:28.989Z,22.2
2019-02-02T02:36:34.941Z,22.2
2019-02-02T02:39:40.996Z,22.1
2019-02-02T02:42:47.887Z,22.2
2019-02-02T02:45:54.054Z,22.1
2019-02-02T02:49:00.582Z,22.1
2019-02-02T02:52:06.932Z,22.1
2019-02-02T02:55:13.909Z,22.1
2019-02-02T02:58:20.199Z,22.1
2019-02-02T03:01:27.609Z,22.1
2019-02-02T03:04:35.224Z,22.1
2019-02-02T03:07:41.335Z,22.1
2019-02-02T03:10:48.285Z,22.1
2019-02-02T03:13:56.701Z,22.1
2019-02-02T03:17:02.862Z,22.1
2019-02-02T03:20:09.206Z,22.1
2019-02-02T03:23:18.862Z,22.1
2019-02-02T03:26:25.660Z,22
2019-02-02T03:29:31.647Z,22
2019-02-02T03:32:38.908Z,22
2019-02-02T03:35:46.190Z,22
2019-02-02T03:38:54.565Z,22
2019-02-02T03:42:00.750Z,22
2019-02-02T03:45:07.473Z,22
2019-02-02T03:48:13.709Z,22
2019-02-02T03:51:20.362Z,22
2019-02-02T03:54:27.812Z,22
2019-02-02T03:57:34.731Z,22
2019-02-02T04:00:42.399Z,22
2019-02-02T04:03:49.422Z,22
2019-02-02T04:06:56.073Z,21.9
2019-02-02T04:10:02.234Z,21.9
2019-02-02T04:13:08.506Z,22
2019-02-02T04:16:15.429Z,22
2019-02-02T04:19:21.646Z,21.9
2019-02-02T04:22:27.759Z,22
2019-02-02T04:25:37.006Z,21.9
2019-02-02T04:28:44.166Z,21.9
2019-02-02T04:31:50.110Z,21.9
2019-02-02T04:34:56.373Z,21.9
2019-02-02T04:38:02.584Z,21.9
2019-02-02T04:41:08.542Z,21.9
2019-02-02T04:44:16.726Z,21.9
2019-02-02T04:47:23.389Z,21.9
2019-02-02T04:50:29.746Z,21.9
2019-02-02T04:53:37.208Z,21.9
2019-02-02T04:56:44.935Z,21.9
2019-02-02T04:59:51.857Z,21.9
2019-02-02T05:03:01.124Z,21.9
2019-02-02T05:06:07.774Z,21.9
2019-02-02T05:09:14.134Z,21.9
2019-02-02T05:12:21.303Z,21.9
2019-02-02T05:15:27.874Z,21.8
2019-02-02T05:18:33.752Z,21.8
2019-02-02T05:21:39.995Z,21.8
2019-02-02T05:24:46.897Z,21.8
2019-02-02T05:27:54.683Z,21.8
2019-02-02T05:31:03.482Z,21.8
2019-02-02T05:34:13.620Z,21.8
2019-02-02T05:37:21.131Z,21.8
2019-02-02T05:40:27.382Z,21.8
2019-02-02T05:43:33.737Z,21.8
2019-02-02T05:46:40.194Z,21.8
2019-02-02T05:49:49.537Z,21.8
2019-02-02T05:52:57.371Z,21.8
2019-02-02T05:56:03.743Z,21.8
2019-02-02T05:59:12.966Z,21.8
2019-02-02T06:02:19.133Z,21.8
2019-02-02T06:05:26.229Z,21.8
2019-02-02T06:08:32.433Z,21.8
2019-02-02T06:11:38.525Z,21.7
2019-02-02T06:14:44.898Z,21.8
2019-02-02T06:17:50.871Z,21.8
2019-02-02T06:20:58.685Z,21.8
2019-02-02T06:24:05.077Z,21.7
2019-02-02T06:27:11.783Z,21.8
2019-02-02T06:30:18.037Z,21.7
2019-02-02T06:33:25.127Z,21.7
2019-02-02T06:36:32.148Z,21.7
2019-02-02T06:39:38.673Z,21.7
2019-02-02T06:42:45.563Z,21.8
2019-02-02T06:45:51.851Z,21.8
2019-02-02T06:49:01.216Z,21.7
2019-02-02T06:52:08.048Z,21.7
2019-02-02T06:55:15.534Z,21.7
2019-02-02T06:58:22.421Z,21.7
2019-02-02T07:01:28.602Z,21.7
2019-02-02T07:04:35.494Z,21.8
2019-02-02T07:07:42.114Z,21.8
2019-02-02T07:10:48.787Z,21.8
2019-02-02T07:13:55.386Z,21.8
2019-02-02T07:17:01.573Z,21.8
2019-02-02T07:20:09.364Z,21.8
2019-02-02T07:23:16.649Z,21.8
2019-02-02T07:26:23.611Z,21.8
2019-02-02T07:29:32.365Z,21.8
2019-02-02T07:32:39.703Z,21.8
2019-02-02T07:35:49.695Z,21.8
2019-02-02T07:38:59.639Z,21.8
2019-02-02T07:42:06.583Z,21.8
2019-02-02T07:45:13.055Z,21.8
2019-02-02T07:48:21.141Z,21.8
2019-02-02T07:51:28.660Z,21.8
2019-02-02T07:54:36.688Z,21.8
2019-02-02T07:57:42.717Z,21.8
2019-02-02T08:00:49.612Z,21.8
2019-02-02T08:03:59.483Z,21.8
2019-02-02T08:07:07.375Z,21.8
2019-02-02T08:10:15.770Z,21.8
2019-02-02T08:13:24.162Z,21.8
2019-02-02T08:16:31.794Z,21.8
2019-02-02T08:19:38.373Z,21.9
2019-02-02T08:22:46.455Z,21.9
2019-02-02T08:25:57.593Z,21.9
2019-02-02T08:29:07.356Z,21.9
2019-02-02T08:32:16.255Z,21.9
2019-02-02T08:35:23.954Z,21.9
2019-02-02T08:38:30.562Z,21.9
2019-02-02T08:41:39.201Z,21.9
2019-02-02T08:44:45.366Z,21.9
2019-02-02T08:47:54.175Z,21.9
2019-02-02T08:51:02.239Z,21.9
2019-02-02T08:54:11.784Z,21.9
2019-02-02T08:57:20.784Z,21.9
2019-02-02T09:00:28.519Z,22
2019-02-02T09:03:36.024Z,21.9
2019-02-02T09:06:44.556Z,22
2019-02-02T09:09:51.249Z,22
2019-02-02T09:12:58.687Z,22
2019-02-02T09:16:05.450Z,22
2019-02-02T09:19:13.468Z,22
2019-02-02T09:22:21.475Z,22
2019-02-02T09:25:27.484Z,22
2019-02-02T09:28:34.581Z,22
2019-02-02T09:31:44.102Z,22
2019-02-02T09:34:55.553Z,22
2019-02-02T09:38:03.584Z,22
2019-02-02T09:41:12.797Z,22
2019-02-02T09:44:20.132Z,22
2019-02-02T09:47:27.073Z,22.1
2019-02-02T09:50:33.237Z,22.1
2019-02-02T09:53:41.073Z,22.1
2019-02-02T09:56:49.004Z,22.1
2019-02-02T09:59:55.859Z,22.1
2019-02-02T10:03:06.413Z,22.1
2019-02-02T10:06:12.750Z,22.1
2019-02-02T10:09:20.305Z,22.1
2019-02-02T10:12:26.483Z,22.1
2019-02-02T10:15:33.310Z,22.1
2019-02-02T10:18:40.183Z,22.1
2019-02-02T10:21:49.658Z,22.1
2019-02-02T10:24:55.998Z,22.2
2019-02-02T10:28:02.014Z,22.2
2019-02-02T10:31:08.365Z,22.2
2019-02-02T10:34:15.718Z,22.2
2019-02-02T10:37:23.226Z,22.2
2019-02-02T10:40:29.980Z,22.2
2019-02-02T10:43:39.476Z,22.2
2019-02-02T10:46:45.803Z,22.2
2019-02-02T10:49:53.382Z,22.2
2019-02-02T10:52:59.757Z,22.2
2019-02-02T10:56:05.922Z,22.3
2019-02-02T10:59:12.118Z,22.2
2019-02-02T11:02:18.323Z,22.3
2019-02-02T11:05:25.864Z,22.3
2019-02-02T11:08:33.602Z,22.3
2019-02-02T11:11:42.696Z,22.3
2019-02-02T11:14:50.733Z,22.3
2019-02-02T11:17:58.187Z,22.3
2019-02-02T11:21:06.629Z,22.3
2019-02-02T11:24:14.898Z,22.3
2019-02-02T11:27:25.311Z,22.3
2019-02-02T11:30:33.606Z,22.4
2019-02-02T11:33:40.481Z,22.4
2019-02-02T11:36:50.192Z,22.4
2019-02-02T11:39:56.709Z,22.4
2019-02-02T11:43:04.977Z,22.4
2019-02-02T11:46:12.677Z,22.4
2019-02-02T11:49:18.951Z,22.4
2019-02-02T11:52:29.144Z,22.4
2019-02-02T11:55:37.944Z,22.4
2019-02-02T11:58:45.272Z,22.4
2019-02-02T12:01:51.528Z,22.4
2019-02-02T12:04:58.267Z,22.4
2019-02-02T12:08:04.630Z,22.4
2019-02-02T12:11:12.067Z,22.4
2019-02-02T12:14:19.368Z,22.4
2019-02-02T12:17:26.459Z,22.4
2019-02-02T12:20:33.706Z,22.4
2019-02-02T12:23:41.074Z,22.4
2019-02-02T12:26:47.630Z,22.4
2019-02-02T12:29:57.866Z,22.4
2019-02-02T12:33:05.520Z,22.4
2019-02-02T12:36:13.343Z,22.4
2019-02-02T12:39:24.463Z,22.4
2019-02-02T12:42:34.987Z,22.4
2019-02-02T12:45:47.510Z,22.5
2019-02-02T12:49:02.029Z,22.4
2019-02-02T12:52:08.913Z,22.4
2019-02-02T12:55:15.395Z,22.5
2019-02-02T12:58:29.359Z,22.5
2019-02-02T13:01:36.494Z,22.5
2019-02-02T13:04:42.632Z,22.5
2019-02-02T13:07:49.911Z,22.5
2019-02-02T13:10:56.285Z,22.5
2019-02-02T13:14:02.468Z,22.5
2019-02-02T13:17:09.431Z,22.5
2019-02-02T13:20:16.661Z,22.5
2019-02-02T13:23:24.296Z,22.5
2019-02-02T13:26:30.340Z,22.5
2019-02-02T13:29:38.551Z,22.5
2019-02-02T13:32:49.575Z,22.5
2019-02-02T13:35:57.562Z,22.5
2019-02-02T13:39:04.039Z,22.5
2019-02-02T13:42:11.346Z,22.5
2019-02-02T13:45:19.678Z,22.5
2019-02-02T13:48:26.097Z,22.5
2019-02-02T13:51:32.108Z,22.5
2019-02-02T13:54:38.800Z,22.5
2019-02-02T13:57:44.780Z,22.5
2019-02-02T14:00:51.910Z,22.5
2019-02-02T14:03:58.431Z,22.5
2019-02-02T14:07:04.555Z,22.5
2019-02-02T14:10:23.088Z,22.5
2019-02-02T14:13:28.999Z,22.5
2019-02-02T14:16:35.405Z,22.5
2019-02-02T14:19:41.849Z,22.5
2019-02-02T14:22:48.079Z,22.5
2019-02-02T14:25:55.729Z,22.5
2019-02-02T14:29:03.977Z,22.5
2019-02-02T14:32:10.142Z,22.5
2019-02-02T14:35:16.228Z,22.5
2019-02-02T14:38:24.284Z,22.5
2019-02-02T14:41:33.453Z,22.5
2019-02-02T14:44:39.372Z,22.5
2019-02-02T14:47:46.600Z,22.5
2019-02-02T14:50:52.591Z,22.5
2019-02-02T14:53:58.780Z,22.5
2019-02-02T14:57:05.988Z,22.5
2019-02-02T15:00:11.914Z,22.5
2019-02-02T15:03:25.392Z,22.5
2019-02-02T15:06:34.236Z,22.5
2019-02-02T15:09:40.356Z,22.5
2019-02-02T15:12:46.724Z,22.5
2019-02-02T15:15:53.012Z,22.5
2019-02-02T15:18:58.999Z,22.5
2019-02-02T15:22:05.035Z,22.4
2019-02-02T15:25:11.037Z,22.4
2019-02-02T15:28:17.925Z,22.4
2019-02-02T15:31:23.989Z,22.4
2019-02-02T15:34:30.746Z,22.4
2019-02-02T15:37:37.040Z,22.4
2019-02-02T15:40:42.901Z,22.4
2019-02-02T15:44:02.501Z,22.4
2019-02-02T15:47:08.963Z,22.4
2019-02-02T15:50:16.115Z,22.4
2019-02-02T15:53:25.295Z,22.4
2019-02-02T15:56:31.868Z,22.3
2019-02-02T15:59:38.924Z,22.3
2019-02-02T16:02:46.538Z,22.4
2019-02-02T16:05:52.784Z,22.3
2019-02-02T16:08:59.329Z,22.3
2019-02-02T16:12:05.394Z,22.3
2019-02-02T16:15:13.036Z,22.3
2019-02-02T16:18:22.927Z,22.3
2019-02-02T16:21:29.137Z,22.3
2019-02-02T16:24:36.283Z,22.3
2019-02-02T16:27:43.482Z,22.3
2019-02-02T16:30:49.539Z,22.2
2019-02-02T16:34:01.862Z,22.2
2019-02-02T16:37:08.566Z,22.2
2019-02-02T16:40:14.468Z,22.2
2019-02-02T16:43:20.946Z,22.2
2019-02-02T16:46:26.967Z,22.2
2019-02-02T16:49:33.112Z,22.2
2019-02-02T16:52:41.764Z,22.2
2019-02-02T16:55:47.682Z,22.2
2019-02-02T16:58:54.110Z,22.2
2019-02-02T17:02:00.119Z,22.2
2019-02-02T17:05:06.056Z,22.1
2019-02-02T17:08:12.033Z,22.1
2019-02-02T17:11:18.325Z,22.1
2019-02-02T17:14:24.370Z,22.1
2019-02-02T17:17:31.437Z,22.1
2019-02-02T17:20:37.410Z,22.1
2019-02-02T17:23:43.726Z,22.1
2019-02-02T17:26:49.965Z,22.1
2019-02-02T17:29:55.888Z,22.1
2019-02-02T17:33:01.901Z,22.1
2019-02-02T17:36:07.852Z,22.1
2019-02-02T17:39:13.848Z,22.1
2019-02-02T17:42:19.724Z,22
2019-02-02T17:45:25.715Z,22
2019-02-02T17:48:31.753Z,22
2019-02-02T17:51:38.024Z,22.1
2019-02-02T17:54:44.039Z,22
2019-02-02T17:57:50.024Z,22
2019-02-02T18:00:55.891Z,22
2019-02-02T18:04:02.037Z,22
2019-02-02T18:07:07.977Z,22
2019-02-02T18:10:13.932Z,22
2019-02-02T18:13:19.836Z,22
2019-02-02T18:16:25.775Z,22
2019-02-02T18:19:31.710Z,21.9
2019-02-02T18:22:37.668Z,21.9
2019-02-02T18:25:46.230Z,21.9
2019-02-02T18:28:53.860Z,21.9
2019-02-02T18:31:59.960Z,21.9
2019-02-02T18:35:18.424Z,21.9
2019-02-02T18:38:24.372Z,21.9
2019-02-02T18:41:30.412Z,21.9
2019-02-02T18:44:36.280Z,21.9
2019-02-02T18:47:42.404Z,21.9
2019-02-02T18:50:48.520Z,21.8
2019-02-02T18:53:54.579Z,21.8
2019-02-02T18:57:00.420Z,21.8
2019-02-02T19:00:06.577Z,21.8
2019-02-02T19:03:12.802Z,21.8
2019-02-02T19:06:18.680Z,21.8
2019-02-02T19:09:24.638Z,21.8
2019-02-02T19:12:30.579Z,21.8
2019-02-02T19:15:36.607Z,21.8
2019-02-02T19:18:42.528Z,21.7
2019-02-02T19:21:48.452Z,21.8
2019-02-02T19:24:54.493Z,21.7
2019-02-02T19:28:00.503Z,21.7
2019-02-02T19:31:06.628Z,21.7
2019-02-02T19:34:12.623Z,21.7
2019-02-02T19:37:21.508Z,21.7
2019-02-02T19:40:27.397Z,21.7
2019-02-02T19:43:33.360Z,21.7
2019-02-02T19:46:39.647Z,21.7
2019-02-02T19:49:45.654Z,21.7
2019-02-02T19:52:51.586Z,21.7
2019-02-02T19:55:57.857Z,21.7
2019-02-02T19:59:03.863Z,21.6
2019-02-02T20:02:09.711Z,21.6
2019-02-02T20:05:27.495Z,21.6
2019-02-02T20:08:34.782Z,21.6
2019-02-02T20:11:40.753Z,21.6
2019-02-02T20:14:46.704Z,21.6
2019-02-02T20:17:52.672Z,21.6
2019-02-02T20:21:12.158Z,21.6
2019-02-02T20:24:18.073Z,21.6
2019-02-02T20:27:24.155Z,21.6
2019-02-02T20:30:30.084Z,21.6
2019-02-02T20:33:36.150Z,21.5
2019-02-02T20:36:42.153Z,21.5
2019-02-02T20:39:48.115Z,21.5
2019-02-02T20:42:54.061Z,21.5
2019-02-02T20:46:00.222Z,21.5
2019-02-02T20:49:07.853Z,21.5
2019-02-02T20:52:14.145Z,21.5
2019-02-02T20:55:23.063Z,21.5
2019-02-02T20:58:30.159Z,21.5
2019-02-02T21:01:36.233Z,21.5
2019-02-02T21:04:42.431Z,21.4
2019-02-02T21:07:48.434Z,21.5
2019-02-02T21:10:56.531Z,21.5
2019-02-02T21:14:02.883Z,21.4
2019-02-02T21:17:08.886Z,21.4
2019-02-02T21:20:15.464Z,21.4
2019-02-02T21:23:22.361Z,21.4
2019-02-02T21:26:28.450Z,21.4
2019-02-02T21:29:34.624Z,21.4
2019-02-02T21:32:40.857Z,21.4
2019-02-02T21:35:48.761Z,21.4
2019-02-02T21:39:07.460Z,21.4
2019-02-02T21:42:13.561Z,21.4
2019-02-02T21:45:19.806Z,21.4
2019-02-02T21:48:28.206Z,21.4
2019-02-02T21:51:37.629Z,21.4
2019-02-02T21:54:43.591Z,21.4
2019-02-02T21:57:49.724Z,21.4
2019-02-02T22:00:57.080Z,21.3
2019-02-02T22:04:03.108Z,21.4
2019-02-02T22:07:09.116Z,21.3
2019-02-02T22:10:15.298Z,21.4
2019-02-02T22:13:21.254Z,21.3
2019-02-02T22:16:27.305Z,21.3
2019-02-02T22:19:33.407Z,21.3
2019-02-02T22:22:40.627Z,21.3
2019-02-02T22:25:49.581Z,21.3
2019-02-02T22:28:57.776Z,21.3
2019-02-02T22:32:03.936Z,21.3
2019-02-02T22:35:11.261Z,21.3
2019-02-02T22:38:17.236Z,21.3
2019-02-02T22:41:23.697Z,21.3
2019-02-02T22:44:29.773Z,21.3
2019-02-02T22:47:37.274Z,21.3
2019-02-02T22:50:43.314Z,21.3
2019-02-02T22:53:49.384Z,21.3
2019-02-02T22:56:55.488Z,21.2
2019-02-02T23:00:01.525Z,21.3
2019-02-02T23:03:07.449Z,21.3
2019-02-02T23:06:13.797Z,21.3
2019-02-02T23:09:19.795Z,21.2
2019-02-02T23:12:25.915Z,21.2
2019-02-02T23:15:31.902Z,21.2
2019-02-02T23:18:37.894Z,21.2
2019-02-02T23:21:48.810Z,21.2
2019-02-02T23:24:54.858Z,21.2
2019-02-02T23:28:01.097Z,21.2
2019-02-02T23:31:07.202Z,21.2
2019-02-02T23:34:15.461Z,21.2
2019-02-02T23:37:21.597Z,21.2
2019-02-02T23:40:27.635Z,21.2
2019-02-02T23:43:33.588Z,21.2
2019-02-02T23:46:39.536Z,21.2
2019-02-02T23:49:45.602Z,21.2
2019-02-02T23:52:51.600Z,21.2
2019-02-02T23:55:58.358Z,21.2
2019-02-02T23:59:04.394Z,21.2
